Terminal Aerodrome Forecast
Issued by NWS

Home | Current Version | Previous Version | Text Only | Print | Product List | Glossary On
Versions: 1 2 3 4 5 6 7 8 9 10 11 12 13 14 15 16
000
FTAK31 PANC 211442 AAB
TAFADL
TAF AMD
PADL 211442Z 2115/2212 VRB04KT 4SM BR BKN005
      TEMPO 2115/2117 1SM BR
     FM211700 06005KT P6SM VCFG FEW005 BKN090
     FM211900 09013G22KT P6SM SCT030 BKN060
      AMD LTD TO CLD VIS AND WIND TIL 211600=

USA.gov is the U.S. government's official web portal to all federal, state and local government web resources and services.